createdAt,value
2022-10-29T00:01:17.063Z,101454.13
2022-10-29T00:03:45.048Z,101455.66
2022-10-29T00:06:16.491Z,101473.59
2022-10-29T00:08:44.212Z,101474.50
2022-10-29T00:11:13.872Z,101479.47
2022-10-29T00:13:43.831Z,101477.81
2022-10-29T00:16:14.359Z,101477.81
2022-10-29T00:18:42.371Z,101470.16
2022-10-29T00:21:12.784Z,101476.16
2022-10-29T00:23:41.123Z,101477.91
2022-10-29T00:26:11.888Z,101481.13
2022-10-29T00:28:39.682Z,101476.78
2022-10-29T00:31:14.997Z,101474.13
2022-10-29T00:33:43.041Z,101473.13
2022-10-29T00:36:13.283Z,101462.00
2022-10-29T00:38:41.104Z,101478.84
2022-10-29T00:41:12.259Z,101480.53
2022-10-29T00:43:42.833Z,101466.19
2022-10-29T00:46:15.151Z,101474.06
2022-10-29T00:48:46.026Z,101469.50
2022-10-29T00:51:16.582Z,101474.09
2022-10-29T00:53:50.904Z,101474.50
2022-10-29T00:56:18.840Z,101485.09
2022-10-29T00:58:47.141Z,101492.63
2022-10-29T01:01:16.913Z,101483.34
2022-10-29T01:03:44.771Z,101455.13
2022-10-29T01:06:12.610Z,101484.34
2022-10-29T01:08:42.720Z,101477.44
2022-10-29T01:11:22.990Z,101483.81
2022-10-29T01:14:07.732Z,101481.28
2022-10-29T01:16:43.299Z,101462.25
2022-10-29T01:19:20.273Z,101477.44
2022-10-29T01:21:54.219Z,101476.72
2022-10-29T01:25:00.331Z,101482.56
2022-10-29T01:27:49.245Z,101483.34
2022-10-29T01:30:22.384Z,101472.13
2022-10-29T01:32:58.598Z,101480.28
2022-10-29T01:35:34.357Z,101477.38
2022-10-29T01:38:16.097Z,101476.34
2022-10-29T01:40:51.066Z,101459.06
2022-10-29T01:43:26.907Z,101481.22
2022-10-29T01:45:59.529Z,101481.97
2022-10-29T01:48:33.672Z,101480.94
2022-10-29T01:51:07.057Z,101471.28
2022-10-29T01:53:38.618Z,101477.78
2022-10-29T01:56:06.823Z,101488.59
2022-10-29T01:58:36.838Z,101490.13
2022-10-29T02:01:17.975Z,101488.59
2022-10-29T02:03:58.481Z,101497.25
2022-10-29T02:06:44.278Z,101492.91
2022-10-29T02:09:20.111Z,101486.16
2022-10-29T02:11:53.909Z,101484.13
2022-10-29T02:14:27.254Z,101477.28
2022-10-29T02:16:57.236Z,101477.81
2022-10-29T02:19:30.732Z,101486.97
2022-10-29T02:21:58.577Z,101486.06
2022-10-29T02:24:26.665Z,101466.50
2022-10-29T02:26:56.904Z,101488.38
2022-10-29T02:29:27.574Z,101488.72
2022-10-29T02:31:58.010Z,101470.00
2022-10-29T02:34:27.160Z,101461.22
2022-10-29T02:36:54.820Z,101460.50
2022-10-29T02:39:22.520Z,101462.81
2022-10-29T02:41:57.904Z,101449.59
2022-10-29T02:44:25.738Z,101450.72
2022-10-29T02:46:56.620Z,101445.16
2022-10-29T02:49:24.456Z,101452.94
2022-10-29T02:51:53.499Z,101448.88
2022-10-29T02:54:21.182Z,101447.34
2022-10-29T02:56:49.012Z,101446.59
2022-10-29T02:59:16.810Z,101438.59
2022-10-29T03:01:44.879Z,101445.56
2022-10-29T03:04:13.045Z,101451.03
2022-10-29T03:06:40.823Z,101440.13
2022-10-29T03:09:10.087Z,101442.53
2022-10-29T03:11:37.796Z,101430.53
2022-10-29T03:14:05.641Z,101425.84
2022-10-29T03:16:33.505Z,101433.06
2022-10-29T03:19:01.573Z,101435.13
2022-10-29T03:21:29.376Z,101432.06
2022-10-29T03:23:57.237Z,101429.63
2022-10-29T03:26:28.469Z,101439.53
2022-10-29T03:28:56.776Z,101429.75
2022-10-29T03:31:24.558Z,101431.75
2022-10-29T03:33:55.120Z,101431.50
2022-10-29T03:36:23.170Z,101427.66
2022-10-29T03:38:50.904Z,101446.34
2022-10-29T03:41:21.222Z,101430.84
2022-10-29T03:43:53.455Z,101438.31
2022-10-29T03:46:21.238Z,101441.34
2022-10-29T03:48:50.526Z,101423.44
2022-10-29T03:51:24.535Z,101447.06
2022-10-29T03:53:53.089Z,101437.81
2022-10-29T03:56:20.845Z,101439.34
2022-10-29T03:58:48.627Z,101441.09
2022-10-29T04:01:20.991Z,101438.06
2022-10-29T04:03:49.028Z,101444.06
2022-10-29T04:06:18.401Z,101436.16
2022-10-29T04:08:46.407Z,101442.91
2022-10-29T04:11:15.306Z,101450.22
2022-10-29T04:13:43.008Z,101447.44
2022-10-29T04:16:11.006Z,101448.97
2022-10-29T04:18:40.071Z,101447.66
2022-10-29T04:29:34.830Z,101446.72
2022-10-29T04:32:02.614Z,101446.59
2022-10-29T04:34:33.910Z,101445.59
2022-10-29T04:37:03.781Z,101394.13
2022-10-29T04:39:44.044Z,101444.16
2022-10-29T04:42:11.879Z,101448.19
2022-10-29T04:44:39.927Z,101453.13
2022-10-29T04:47:07.675Z,101461.53
2022-10-29T04:49:36.779Z,101463.78
2022-10-29T04:52:06.996Z,101462.91
2022-10-29T04:54:34.718Z,101462.13
2022-10-29T04:57:16.362Z,101452.31
2022-10-29T04:59:52.961Z,101453.63
2022-10-29T05:02:25.641Z,101451.84
2022-10-29T05:04:54.971Z,101453.38
2022-10-29T05:07:23.248Z,101459.91
2022-10-29T05:10:05.091Z,101452.03
2022-10-29T05:12:35.995Z,101453.56
2022-10-29T05:15:04.491Z,101450.13
2022-10-29T05:17:38.423Z,101454.91
2022-10-29T05:20:08.902Z,101457.31
2022-10-29T05:22:36.844Z,101449.59
2022-10-29T05:25:06.858Z,101466.97
2022-10-29T05:27:47.004Z,101458.28
2022-10-29T05:30:14.749Z,101457.97
2022-10-29T05:32:44.615Z,101456.97
2022-10-29T05:35:17.040Z,101454.34
2022-10-29T05:37:44.824Z,101451.44
2022-10-29T05:40:13.303Z,101451.69
2022-10-29T05:42:47.316Z,101455.00
2022-10-29T05:45:21.250Z,101457.31
2022-10-29T05:47:57.506Z,101452.84
2022-10-29T05:50:30.742Z,101434.63
2022-10-29T05:52:59.550Z,101457.25
2022-10-29T05:55:28.651Z,101463.56
2022-10-29T05:57:59.586Z,101470.66
2022-10-29T06:00:31.899Z,101474.03
2022-10-29T06:03:00.408Z,101481.00
2022-10-29T06:05:34.387Z,101476.34
2022-10-29T06:08:02.906Z,101478.66
2022-10-29T06:10:31.006Z,101471.31
2022-10-29T06:13:12.871Z,101479.19
2022-10-29T06:15:58.448Z,101475.91
2022-10-29T06:18:26.789Z,101478.94
2022-10-29T06:20:58.978Z,101479.34
2022-10-29T06:23:34.698Z,101484.06
2022-10-29T06:26:03.559Z,101482.56
2022-10-29T06:28:34.891Z,101482.06
2022-10-29T06:31:06.560Z,101492.63
2022-10-29T06:33:34.365Z,101488.94
2022-10-29T06:36:13.437Z,101499.13
2022-10-29T06:38:42.020Z,101465.94
2022-10-29T06:41:10.605Z,101493.16
2022-10-29T06:43:44.493Z,101493.69
2022-10-29T06:46:12.151Z,101486.44
2022-10-29T06:48:42.932Z,101468.63
2022-10-29T06:51:14.703Z,101476.50
2022-10-29T06:53:43.951Z,101464.56
2022-10-29T06:56:11.757Z,101477.63
2022-10-29T06:58:41.747Z,101456.16
2022-10-29T07:01:09.827Z,101474.69
2022-10-29T07:03:40.016Z,101466.19
2022-10-29T07:06:08.458Z,101459.72
2022-10-29T07:08:37.682Z,101459.97
2022-10-29T07:11:08.602Z,101459.22
2022-10-29T07:13:39.846Z,101470.25
2022-10-29T07:16:08.828Z,101482.34
2022-10-29T07:18:42.882Z,101476.50
2022-10-29T07:21:10.734Z,101469.41
2022-10-29T07:23:39.982Z,101478.66
2022-10-29T07:26:09.702Z,101485.13
2022-10-29T07:28:37.907Z,101480.78
2022-10-29T07:31:12.426Z,101481.69
2022-10-29T07:33:40.317Z,101471.91
2022-10-29T07:36:10.617Z,101480.53
2022-10-29T07:38:39.902Z,101479.78
2022-10-29T07:41:08.191Z,101482.59
2022-10-29T07:43:36.019Z,101475.34
2022-10-29T07:46:03.913Z,101468.38
2022-10-29T07:48:31.956Z,101474.09
2022-10-29T07:51:02.743Z,101479.19
2022-10-29T07:53:31.281Z,101467.63
2022-10-29T07:56:00.953Z,101462.44
2022-10-29T07:58:29.234Z,101460.00
2022-10-29T08:01:00.649Z,101458.66
2022-10-29T08:03:28.695Z,101459.94
2022-10-29T08:06:02.795Z,101463.75
2022-10-29T08:08:30.906Z,101466.56
2022-10-29T08:11:02.973Z,101468.72
2022-10-29T08:13:34.340Z,101456.63
2022-10-29T08:16:02.425Z,101462.09
2022-10-29T08:18:30.172Z,101461.69
2022-10-29T08:21:07.623Z,101455.09
2022-10-29T08:23:36.267Z,101462.94
2022-10-29T08:26:08.573Z,101461.19
2022-10-29T08:28:36.573Z,101461.81
2022-10-29T08:31:06.575Z,101465.19
2022-10-29T08:33:34.326Z,101465.06
2022-10-29T08:36:11.616Z,101468.34
2022-10-29T08:38:39.393Z,101454.59
2022-10-29T08:44:15.316Z,101465.28
2022-10-29T08:46:56.188Z,101460.28
2022-10-29T08:49:33.080Z,101451.47
2022-10-29T08:52:14.153Z,101441.13
2022-10-29T08:54:45.244Z,101454.59
2022-10-29T08:57:21.011Z,101453.50
2022-10-29T09:00:01.096Z,101453.66
2022-10-29T09:02:30.158Z,101439.84
2022-10-29T09:04:58.365Z,101447.09
2022-10-29T09:07:51.390Z,101442.16
2022-10-29T09:10:36.291Z,101438.03
2022-10-29T09:13:33.295Z,101442.84
2022-10-29T09:16:11.676Z,101437.28
2022-10-29T09:18:51.709Z,101444.41
2022-10-29T09:21:30.183Z,101443.69
2022-10-29T09:24:08.760Z,101435.16
2022-10-29T09:26:50.390Z,101461.22
2022-10-29T09:29:53.374Z,101444.50
2022-10-29T09:32:27.196Z,101445.03
2022-10-29T09:35:14.655Z,101448.69
2022-10-29T09:37:48.710Z,101451.97
2022-10-29T09:40:32.067Z,101466.16
2022-10-29T09:43:01.251Z,101455.75
2022-10-29T09:45:46.012Z,101457.34
2022-10-29T09:48:23.314Z,101455.00
2022-10-29T09:51:02.013Z,101452.66
2022-10-29T09:53:29.920Z,101455.38
2022-10-29T09:55:57.949Z,101416.53
2022-10-29T09:58:29.172Z,101439.91
2022-10-29T10:00:59.523Z,101431.97
2022-10-29T10:03:31.064Z,101434.31
2022-10-29T10:06:10.356Z,101431.19
2022-10-29T10:09:02.996Z,101434.50
2022-10-29T10:11:39.774Z,101431.38
2022-10-29T10:14:19.272Z,101424.72
2022-10-29T10:16:59.072Z,101399.44
2022-10-29T10:19:29.345Z,101414.28
2022-10-29T10:21:59.603Z,101417.88
2022-10-29T10:24:32.787Z,101417.97
2022-10-29T10:27:01.866Z,101421.97
2022-10-29T10:29:29.763Z,101422.31
2022-10-29T10:32:17.515Z,101421.53
2022-10-29T10:34:45.650Z,101422.31
2022-10-29T10:37:19.520Z,101415.97
2022-10-29T10:40:01.529Z,101408.22
2022-10-29T10:42:32.457Z,101397.53
2022-10-29T10:45:06.537Z,101386.31
2022-10-29T10:47:37.271Z,101383.41
2022-10-29T10:50:13.548Z,101395.84
2022-10-29T10:52:55.755Z,101393.41
2022-10-29T10:55:28.383Z,101358.81
2022-10-29T10:58:06.828Z,101383.22
2022-10-29T11:00:45.088Z,101370.56
2022-10-29T11:03:28.723Z,101374.81
2022-10-29T11:06:06.654Z,101363.34
2022-10-29T11:08:40.875Z,101368.34
2022-10-29T11:11:14.591Z,101361.88
2022-10-29T11:13:43.405Z,101360.00
2022-10-29T11:16:17.911Z,101355.78
2022-10-29T11:18:55.142Z,101360.88
2022-10-29T11:21:29.127Z,101361.78
2022-10-29T11:24:00.850Z,101348.41
2022-10-29T11:26:33.509Z,101349.16
2022-10-29T11:29:17.252Z,101343.81
2022-10-29T11:32:04.165Z,101341.59
2022-10-29T11:34:46.765Z,101337.69
2022-10-29T11:37:24.124Z,101327.84
2022-10-29T11:39:57.095Z,101333.44
2022-10-29T11:42:26.140Z,101341.50
2022-10-29T11:44:54.649Z,101336.41
2022-10-29T11:48:07.465Z,101339.47
2022-10-29T11:50:43.749Z,101342.25
2022-10-29T11:53:23.863Z,101337.34
2022-10-29T11:56:04.604Z,101340.44
2022-10-29T11:58:40.777Z,101340.28
2022-10-29T12:01:29.264Z,101328.34
2022-10-29T12:06:55.006Z,101326.25
2022-10-29T12:09:47.245Z,101320.38
2022-10-29T12:12:29.734Z,101319.69
2022-10-29T12:15:08.185Z,101312.91
2022-10-29T12:17:42.977Z,101315.47
2022-10-29T12:20:23.592Z,101308.47
2022-10-29T12:23:05.038Z,101292.81
2022-10-29T12:26:00.554Z,101293.41
2022-10-29T12:28:42.794Z,101289.47
2022-10-29T12:31:24.278Z,101281.16
2022-10-29T12:34:07.962Z,101262.13
2022-10-29T12:36:46.570Z,101259.91
2022-10-29T12:39:25.560Z,101260.47
2022-10-29T12:41:57.929Z,101231.53
2022-10-29T12:44:39.986Z,101241.59
2022-10-29T12:47:19.317Z,101238.97
2022-10-29T12:50:03.933Z,101252.09
2022-10-29T12:52:43.663Z,101259.47
2022-10-29T12:55:17.370Z,101252.50
2022-10-29T12:57:51.167Z,101252.19
2022-10-29T13:00:47.665Z,101256.53
2022-10-29T13:03:51.277Z,101255.44
2022-10-29T13:06:45.309Z,101241.47
2022-10-29T13:09:18.271Z,101234.97
2022-10-29T13:11:51.078Z,101236.06
2022-10-29T13:14:33.484Z,101236.28
2022-10-29T13:17:03.063Z,101243.03
2022-10-29T13:19:44.381Z,101242.06
2022-10-29T13:22:50.894Z,101244.63
2022-10-29T13:25:44.016Z,101247.75
2022-10-29T13:28:51.404Z,101244.78
2022-10-29T13:31:46.760Z,101250.50
2022-10-29T13:34:47.699Z,101247.72
2022-10-29T13:38:03.404Z,101242.41
2022-10-29T13:41:04.973Z,101243.50
2022-10-29T13:43:44.838Z,101246.19
2022-10-29T13:46:30.501Z,101256.41
2022-10-29T13:49:03.983Z,101240.94
2022-10-29T13:54:39.524Z,101246.72
2022-10-29T13:57:17.434Z,101234.34
2022-10-29T13:59:51.510Z,101240.84
2022-10-29T14:02:48.277Z,101242.81
2022-10-29T14:05:26.433Z,101243.13
2022-10-29T14:07:58.300Z,101246.00
2022-10-29T14:13:01.858Z,101220.72
2022-10-29T14:15:29.606Z,101239.00
2022-10-29T14:17:58.697Z,101230.41
2022-10-29T14:20:29.335Z,101223.41
2022-10-29T14:22:58.592Z,101229.56
2022-10-29T14:25:33.150Z,101239.69
2022-10-29T14:28:19.428Z,101226.41
2022-10-29T14:31:03.711Z,101215.69
2022-10-29T14:33:33.184Z,101223.97
2022-10-29T14:36:15.077Z,101221.41
2022-10-29T14:38:46.225Z,101222.19
2022-10-29T14:41:16.471Z,101215.50
2022-10-29T14:43:45.783Z,101223.47
2022-10-29T14:46:26.415Z,101224.63
2022-10-29T14:49:04.376Z,101219.59
2022-10-29T14:51:39.355Z,101199.16
2022-10-29T14:54:20.646Z,101218.66
2022-10-29T14:56:55.307Z,101212.16
2022-10-29T14:59:29.072Z,101211.94
2022-10-29T15:02:05.514Z,101210.69
2022-10-29T15:04:50.672Z,101210.69
2022-10-29T15:07:31.992Z,101213.75
2022-10-29T15:10:27.106Z,101212.34
2022-10-29T15:12:57.535Z,101211.13
2022-10-29T15:15:30.966Z,101220.06
2022-10-29T15:18:07.305Z,101216.13
2022-10-29T15:20:46.367Z,101206.78
2022-10-29T15:23:21.049Z,101202.63
2022-10-29T15:25:52.136Z,101205.44
2022-10-29T15:28:25.107Z,101165.09
2022-10-29T15:30:54.191Z,101208.88
2022-10-29T15:33:25.941Z,101214.44
2022-10-29T15:36:00.768Z,101206.13
2022-10-29T15:39:05.948Z,101208.06
2022-10-29T15:41:39.950Z,101212.72
2022-10-29T15:44:22.367Z,101220.06
2022-10-29T15:46:59.840Z,101205.91
2022-10-29T15:49:31.392Z,101206.34
2022-10-29T15:52:02.337Z,101212.34
2022-10-29T15:54:30.474Z,101208.81
2022-10-29T15:56:58.147Z,101214.47
2022-10-29T15:59:27.092Z,101203.84
2022-10-29T16:01:55.005Z,101207.38
2022-10-29T16:04:25.318Z,101208.84
2022-10-29T16:07:14.566Z,101212.72
2022-10-29T16:09:48.618Z,101213.97
2022-10-29T16:12:16.393Z,101207.34
2022-10-29T16:14:46.595Z,101208.00
2022-10-29T16:17:18.850Z,101203.78
2022-10-29T16:19:46.538Z,101169.13
2022-10-29T16:22:21.247Z,101200.91
2022-10-29T16:24:49.132Z,101197.34
2022-10-29T16:27:19.789Z,101200.47
2022-10-29T16:29:49.508Z,101197.91
2022-10-29T16:32:19.195Z,101193.16
2022-10-29T16:34:46.997Z,101197.06
2022-10-29T16:37:18.533Z,101196.63
2022-10-29T16:39:46.470Z,101186.50
2022-10-29T16:42:29.229Z,101201.03
2022-10-29T16:44:57.636Z,101204.22
2022-10-29T16:47:25.425Z,101210.88
2022-10-29T16:49:53.262Z,101192.28
2022-10-29T16:52:25.267Z,101200.22
2022-10-29T16:54:55.382Z,101197.47
2022-10-29T16:57:29.487Z,101209.97
2022-10-29T16:59:57.610Z,101200.13
2022-10-29T17:02:25.448Z,101189.69
2022-10-29T17:05:07.077Z,101193.00
2022-10-29T17:07:36.119Z,101197.00
2022-10-29T17:10:07.709Z,101200.09
2022-10-29T17:12:36.449Z,101202.63
2022-10-29T17:15:04.587Z,101204.63
2022-10-29T17:17:46.344Z,101198.91
2022-10-29T17:20:14.393Z,101190.47
2022-10-29T17:22:43.881Z,101186.38
2022-10-29T17:25:12.077Z,101189.59
2022-10-29T17:27:40.376Z,101183.38
2022-10-29T17:30:10.615Z,101186.69
2022-10-29T17:32:38.440Z,101192.22
2022-10-29T17:35:08.651Z,101194.44
2022-10-29T17:37:36.485Z,101189.88
2022-10-29T17:40:08.170Z,101186.47
2022-10-29T17:42:41.368Z,101175.72
2022-10-29T17:45:10.637Z,101189.09
2022-10-29T17:47:41.231Z,101186.88
2022-10-29T17:50:09.711Z,101186.50
2022-10-29T17:52:40.537Z,101182.22
2022-10-29T17:55:12.565Z,101187.94
2022-10-29T17:57:40.465Z,101186.53
2022-10-29T18:00:09.816Z,101192.16
2022-10-29T18:02:37.659Z,101188.41
2022-10-29T18:05:08.054Z,101193.28
2022-10-29T18:07:35.808Z,101194.28
2022-10-29T18:10:03.673Z,101191.59
2022-10-29T18:12:32.778Z,101182.09
2022-10-29T18:15:00.485Z,101184.97
2022-10-29T18:17:29.131Z,101188.66
2022-10-29T18:19:56.985Z,101201.59
2022-10-29T18:22:24.891Z,101185.31
2022-10-29T18:24:52.708Z,101197.41
2022-10-29T18:27:21.247Z,101194.72
2022-10-29T18:29:51.309Z,101195.41
2022-10-29T18:32:19.639Z,101193.59
2022-10-29T18:34:54.775Z,101189.19
2022-10-29T18:37:31.662Z,101187.41
2022-10-29T18:39:59.907Z,101196.56
2022-10-29T18:42:29.865Z,101186.94
2022-10-29T18:44:58.943Z,101187.81
2022-10-29T18:47:27.542Z,101198.91
2022-10-29T18:49:55.313Z,101195.88
2022-10-29T18:52:29.641Z,101197.41
2022-10-29T18:54:57.548Z,101199.75
2022-10-29T18:57:29.820Z,101199.59
2022-10-29T18:59:59.230Z,101196.19
2022-10-29T19:02:27.400Z,101198.19
2022-10-29T19:04:55.288Z,101209.25
2022-10-29T19:07:23.073Z,101192.88
2022-10-29T19:09:53.050Z,101191.84
2022-10-29T19:12:23.013Z,101191.09
2022-10-29T19:14:50.891Z,101194.66
2022-10-29T19:17:20.101Z,101190.56
2022-10-29T19:20:13.210Z,101187.25
2022-10-29T19:22:41.075Z,101187.59
2022-10-29T19:25:09.525Z,101187.59
2022-10-29T19:27:40.357Z,101187.34
2022-10-29T19:30:09.613Z,101187.13
2022-10-29T19:32:41.905Z,101184.22
2022-10-29T19:35:15.165Z,101185.66
2022-10-29T19:37:46.732Z,101184.75
2022-10-29T19:40:14.610Z,101174.72
2022-10-29T19:42:54.621Z,101177.13
2022-10-29T19:45:24.944Z,101178.56
2022-10-29T19:47:54.513Z,101183.53
2022-10-29T19:50:25.306Z,101183.31
2022-10-29T19:52:53.686Z,101188.13
2022-10-29T19:55:24.559Z,101185.38
2022-10-29T19:57:55.122Z,101190.44
2022-10-29T20:00:23.647Z,101186.91
2022-10-29T20:02:54.298Z,101190.34
2022-10-29T20:05:28.302Z,101186.13
2022-10-29T20:07:57.151Z,101187.53
2022-10-29T20:10:27.011Z,101186.66
2022-10-29T20:12:55.884Z,101183.88
2022-10-29T20:15:23.727Z,101180.22
2022-10-29T20:17:51.976Z,101181.09
2022-10-29T20:20:21.528Z,101178.56
2022-10-29T20:22:50.195Z,101187.72
2022-10-29T20:25:23.879Z,101190.91
2022-10-29T20:27:52.405Z,101194.88
2022-10-29T20:30:20.269Z,101186.25
2022-10-29T20:32:49.199Z,101179.25
2022-10-29T20:35:24.897Z,101180.13
2022-10-29T20:37:54.970Z,101176.69
2022-10-29T20:40:32.089Z,101162.91
2022-10-29T20:42:59.994Z,101186.53
2022-10-29T20:45:27.878Z,101181.56
2022-10-29T20:47:58.314Z,101178.00
2022-10-29T20:50:33.391Z,101174.47
2022-10-29T20:55:39.954Z,101171.31
2022-10-29T20:58:07.778Z,101164.44
2022-10-29T21:00:35.519Z,101168.66
2022-10-29T21:03:03.382Z,101167.75
2022-10-29T21:05:38.623Z,101164.44
2022-10-29T21:08:06.698Z,101158.72
2022-10-29T21:10:37.391Z,101162.16
2022-10-29T21:13:11.399Z,101154.53
2022-10-29T21:15:39.319Z,101157.72
2022-10-29T21:18:07.074Z,101156.81
2022-10-29T21:20:36.170Z,101151.72
2022-10-29T21:23:07.075Z,101155.16
2022-10-29T21:25:39.835Z,101162.28
2022-10-29T21:28:07.823Z,101160.63
2022-10-29T21:30:36.678Z,101161.63
2022-10-29T21:33:04.542Z,101166.19
2022-10-29T21:35:36.469Z,101155.25
2022-10-29T21:38:07.802Z,101147.91
2022-10-29T21:40:36.006Z,101155.13
2022-10-29T21:43:04.026Z,101146.88
2022-10-29T21:45:31.839Z,101143.44
2022-10-29T21:47:59.701Z,101138.34
2022-10-29T21:50:27.504Z,101145.19
2022-10-29T21:52:58.661Z,101145.97
2022-10-29T21:55:29.139Z,101135.31
2022-10-29T21:57:57.350Z,101136.97
2022-10-29T22:00:25.947Z,101131.88
2022-10-29T22:02:57.035Z,101125.25
2022-10-29T22:05:28.504Z,101127.06
2022-10-29T22:07:58.458Z,101116.09
2022-10-29T22:10:26.716Z,101115.34
2022-10-29T22:12:57.128Z,101114.47
2022-10-29T22:15:28.050Z,101112.34
2022-10-29T22:17:55.942Z,101120.06
2022-10-29T22:20:26.960Z,101115.09
2022-10-29T22:25:41.033Z,101093.00
2022-10-29T22:28:09.361Z,101096.56
2022-10-29T22:30:37.797Z,101092.69
2022-10-29T22:33:05.498Z,101087.09
2022-10-29T22:35:34.666Z,101100.91
2022-10-29T22:38:02.455Z,101103.56
2022-10-29T22:40:30.328Z,101092.28
2022-10-29T22:42:59.845Z,101083.75
2022-10-29T22:45:27.849Z,101081.00
2022-10-29T22:47:55.608Z,101083.00
2022-10-29T22:50:23.678Z,101076.59
2022-10-29T22:52:51.667Z,101077.06
2022-10-29T22:55:22.220Z,101080.72
2022-10-29T22:57:50.147Z,101067.47
2022-10-29T23:00:19.594Z,101067.69
2022-10-29T23:02:47.674Z,101064.41
2022-10-29T23:05:15.924Z,101064.50
2022-10-29T23:07:43.767Z,101063.75
2022-10-29T23:10:11.758Z,101067.06
2022-10-29T23:12:39.869Z,101062.75
2022-10-29T23:15:08.715Z,101055.22
2022-10-29T23:17:40.578Z,101049.78
2022-10-29T23:20:08.821Z,101054.97
2022-10-29T23:22:36.906Z,101066.06
2022-10-29T23:25:05.089Z,101072.41
2022-10-29T23:27:33.866Z,101062.31
2022-10-29T23:30:01.653Z,101055.44
2022-10-29T23:32:36.743Z,101059.78
2022-10-29T23:35:06.518Z,101067.06
2022-10-29T23:37:36.414Z,101064.41
2022-10-29T23:40:04.611Z,101062.75
2022-10-29T23:42:32.481Z,101056.00
2022-10-29T23:45:07.733Z,101063.50
2022-10-29T23:47:38.104Z,101017.31
2022-10-29T23:50:08.121Z,101091.84
2022-10-29T23:52:35.887Z,101102.25
2022-10-29T23:55:05.819Z,101099.81
2022-10-29T23:57:33.739Z,101095.72
